createdAt,value
2022-09-30T00:01:28.709Z,8.17
2022-09-30T00:05:29.829Z,7.83
2022-09-30T00:09:31.292Z,8.03
2022-09-30T00:13:35.959Z,10.13
2022-09-30T00:17:37.168Z,8.50
2022-09-30T00:21:38.877Z,8.90
2022-09-30T00:25:40.091Z,9.10
2022-09-30T00:29:41.253Z,9.80
2022-09-30T00:33:43.176Z,9.23
2022-09-30T00:37:44.378Z,10.03
2022-09-30T00:41:47.776Z,9.53
2022-09-30T00:45:52.664Z,9.63
2022-09-30T00:49:56.882Z,10.30
2022-09-30T00:54:01.880Z,9.03
2022-09-30T00:58:06.086Z,8.93
2022-09-30T01:02:09.499Z,8.80
2022-09-30T01:06:10.817Z,8.30
2022-09-30T01:10:12.327Z,8.37
2022-09-30T01:14:20.322Z,8.10
2022-09-30T01:18:34.305Z,9.73
2022-09-30T01:22:54.426Z,8.13
2022-09-30T01:27:11.537Z,8.70
2022-09-30T01:31:37.269Z,8.10
2022-09-30T01:35:54.396Z,8.20
2022-09-30T01:40:02.608Z,8.20
2022-09-30T01:44:31.740Z,8.73
2022-09-30T01:48:36.740Z,9.00
2022-09-30T01:52:50.367Z,9.13
2022-09-30T01:56:55.581Z,8.77
2022-09-30T02:01:00.332Z,9.30
2022-09-30T02:05:05.315Z,10.53
2022-09-30T02:09:16.348Z,8.43
2022-09-30T02:13:21.349Z,8.43
2022-09-30T02:17:26.425Z,13.30
2022-09-30T02:21:31.443Z,12.40
2022-09-30T02:25:39.138Z,15.23
2022-09-30T02:29:44.949Z,9.63
2022-09-30T02:34:21.798Z,11.67
2022-09-30T02:38:26.792Z,7.97
2022-09-30T02:42:30.314Z,9.20
2022-09-30T02:46:35.384Z,9.53
2022-09-30T02:50:49.522Z,10.57
2022-09-30T02:55:06.632Z,8.93
2022-09-30T02:59:07.815Z,9.47
2022-09-30T03:03:12.716Z,8.83
2022-09-30T03:07:14.247Z,9.00
2022-09-30T03:11:25.082Z,7.53
2022-09-30T03:15:52.730Z,8.00
2022-09-30T03:20:00.695Z,11.80
2022-09-30T03:24:34.511Z,7.90
2022-09-30T03:28:45.875Z,16.80
2022-09-30T03:33:06.190Z,14.00
2022-09-30T03:37:11.094Z,11.10
2022-09-30T03:41:30.955Z,8.03
2022-09-30T03:45:38.973Z,7.33
2022-09-30T03:49:50.018Z,7.70
2022-09-30T03:53:52.613Z,7.17
2022-09-30T03:57:53.803Z,7.90
2022-09-30T04:01:56.743Z,5.70
2022-09-30T04:05:57.910Z,8.53
2022-09-30T04:09:59.095Z,7.27
2022-09-30T04:14:00.966Z,6.50
2022-09-30T04:18:03.468Z,5.93
2022-09-30T04:22:05.158Z,5.50
2022-09-30T04:26:09.054Z,6.47
2022-09-30T04:30:10.826Z,8.30
2022-09-30T04:34:12.032Z,9.53
2022-09-30T04:38:13.276Z,7.80
2022-09-30T04:42:14.637Z,6.77
2022-09-30T04:46:20.559Z,6.27
2022-09-30T04:50:22.302Z,5.70
2022-09-30T04:54:24.398Z,7.00
2022-09-30T04:58:25.875Z,21.77
2022-09-30T05:02:27.823Z,23.00
2022-09-30T05:06:29.076Z,14.07
2022-09-30T05:10:30.616Z,8.53
2022-09-30T05:14:32.675Z,7.27
2022-09-30T05:18:34.689Z,7.40
2022-09-30T05:22:36.385Z,7.20
2022-09-30T05:26:39.480Z,5.00
2022-09-30T05:30:44.636Z,5.23
2022-09-30T05:34:46.637Z,5.50
2022-09-30T05:38:50.442Z,5.67
2022-09-30T05:42:51.645Z,6.73
2022-09-30T05:46:52.886Z,5.13
2022-09-30T05:50:55.628Z,5.37
2022-09-30T05:54:58.829Z,6.10
2022-09-30T05:59:00.620Z,6.17
2022-09-30T06:03:01.881Z,6.57
2022-09-30T06:07:06.988Z,7.40
2022-09-30T06:11:11.431Z,8.07
2022-09-30T06:15:12.540Z,8.63
2022-09-30T06:19:13.837Z,8.10
2022-09-30T06:23:15.052Z,9.77
2022-09-30T06:27:16.259Z,7.97
2022-09-30T06:31:17.541Z,6.70
2022-09-30T06:35:19.890Z,7.97
2022-09-30T06:39:21.084Z,8.13
2022-09-30T06:43:22.238Z,9.20
2022-09-30T06:47:25.883Z,10.30
2022-09-30T06:51:28.461Z,8.43
2022-09-30T06:55:29.917Z,8.73
2022-09-30T06:59:31.183Z,9.30
2022-09-30T07:03:34.624Z,8.90
2022-09-30T07:07:36.213Z,11.07
2022-09-30T07:11:38.115Z,9.40
2022-09-30T07:15:41.608Z,8.13
2022-09-30T07:19:42.802Z,7.40
2022-09-30T07:23:48.180Z,8.47
2022-09-30T07:27:49.674Z,12.43
2022-09-30T07:31:51.125Z,10.40
2022-09-30T07:35:54.055Z,7.70
2022-09-30T07:39:55.146Z,8.63
2022-09-30T07:43:58.908Z,7.07
2022-09-30T07:48:01.208Z,9.17
2022-09-30T07:52:02.724Z,9.50
2022-09-30T07:56:05.868Z,9.57
2022-09-30T08:00:29.795Z,8.40
2022-09-30T08:04:11.986Z,9.37
2022-09-30T08:08:14.151Z,8.70
2022-09-30T08:12:15.450Z,7.00
2022-09-30T08:16:16.691Z,8.83
2022-09-30T08:20:22.321Z,9.60
2022-09-30T08:24:21.490Z,9.20
2022-09-30T08:28:23.649Z,9.00
2022-09-30T08:32:24.861Z,7.00
2022-09-30T08:36:27.209Z,7.53
2022-09-30T08:40:31.746Z,8.67
2022-09-30T08:44:42.845Z,8.83
2022-09-30T08:49:22.770Z,7.90
2022-09-30T08:53:33.697Z,7.73
2022-09-30T08:57:38.658Z,7.23
2022-09-30T09:01:46.609Z,7.63
2022-09-30T09:05:54.802Z,7.30
2022-09-30T09:10:28.892Z,8.00
2022-09-30T09:14:52.441Z,10.00
2022-09-30T09:19:11.066Z,7.67
2022-09-30T09:23:13.450Z,7.97
2022-09-30T09:27:52.027Z,8.60
2022-09-30T09:31:54.454Z,8.40
2022-09-30T09:36:06.408Z,9.70
2022-09-30T09:40:17.820Z,9.20
2022-09-30T09:44:32.205Z,7.93
2022-09-30T09:48:35.369Z,6.80
2022-09-30T09:52:43.880Z,7.10
2022-09-30T09:56:45.112Z,6.67
2022-09-30T10:00:48.743Z,18.70
2022-09-30T10:04:52.693Z,6.03
2022-09-30T10:08:56.167Z,6.90
2022-09-30T10:12:57.350Z,5.80
2022-09-30T10:17:00.394Z,6.67
2022-09-30T10:21:08.072Z,5.63
2022-09-30T10:25:25.124Z,4.20
2022-09-30T10:29:30.881Z,4.63
2022-09-30T10:33:42.205Z,4.73
2022-09-30T10:37:52.510Z,5.60
2022-09-30T10:42:18.701Z,4.40
2022-09-30T10:46:26.936Z,3.57
2022-09-30T10:50:26.998Z,4.20
2022-09-30T10:54:55.944Z,3.27
2022-09-30T10:58:58.452Z,3.00
2022-09-30T11:03:09.587Z,3.43
2022-09-30T11:07:29.481Z,3.43
2022-09-30T11:11:40.464Z,2.40
2022-09-30T11:16:05.114Z,2.03
2022-09-30T11:20:13.048Z,2.10
2022-09-30T11:24:18.012Z,2.50
2022-09-30T11:28:32.180Z,2.10
2022-09-30T11:32:49.222Z,1.90
2022-09-30T11:37:03.342Z,2.00
2022-09-30T11:41:08.324Z,2.00
2022-09-30T11:45:13.953Z,1.70
2022-09-30T11:49:35.396Z,2.33
2022-09-30T11:53:49.379Z,2.60
2022-09-30T11:57:57.084Z,3.07
2022-09-30T12:02:02.422Z,2.40
2022-09-30T12:06:13.672Z,1.80
2022-09-30T12:10:21.920Z,2.13
2022-09-30T12:14:26.926Z,3.10
2022-09-30T12:18:31.919Z,3.10
2022-09-30T12:22:38.707Z,3.50
2022-09-30T12:26:40.600Z,3.03
2022-09-30T12:30:43.803Z,2.73
2022-09-30T12:35:01.362Z,3.40
2022-09-30T12:39:24.705Z,2.73
2022-09-30T12:43:45.679Z,3.97
2022-09-30T12:47:54.202Z,5.07
2022-09-30T12:51:58.802Z,3.37
2022-09-30T12:56:09.230Z,3.90
2022-09-30T13:00:22.279Z,3.90
2022-09-30T13:04:35.909Z,3.37
2022-09-30T13:08:43.198Z,3.50
2022-09-30T13:12:46.112Z,3.10
2022-09-30T13:17:15.361Z,2.80
2022-09-30T13:21:20.593Z,3.03
2022-09-30T13:25:21.975Z,3.43
2022-09-30T13:29:27.459Z,2.70
2022-09-30T13:33:32.457Z,3.40
2022-09-30T13:37:37.341Z,3.83
2022-09-30T13:41:39.334Z,2.73
2022-09-30T13:45:43.062Z,2.97
2022-09-30T13:50:23.045Z,2.50
2022-09-30T13:54:35.071Z,2.80
2022-09-30T13:58:46.191Z,3.60
2022-09-30T14:02:53.785Z,3.00
2022-09-30T14:07:13.635Z,2.63
2022-09-30T14:11:24.871Z,2.33
2022-09-30T14:15:31.153Z,2.10
2022-09-30T14:19:55.255Z,2.00
2022-09-30T14:24:03.442Z,1.70
2022-09-30T14:28:11.483Z,1.90
2022-09-30T14:32:17.891Z,2.20
2022-09-30T14:36:21.376Z,3.30
2022-09-30T14:40:29.016Z,2.80
2022-09-30T14:44:33.842Z,1.97
2022-09-30T14:48:38.119Z,2.40
2022-09-30T14:52:44.518Z,2.53
2022-09-30T14:56:46.208Z,12.93
2022-09-30T15:00:50.370Z,4.47
2022-09-30T15:04:55.245Z,2.80
2022-09-30T15:09:03.707Z,2.20
2022-09-30T15:13:09.317Z,1.90
2022-09-30T15:17:19.501Z,2.50
2022-09-30T15:21:23.205Z,3.20
2022-09-30T15:25:25.006Z,2.80
2022-09-30T15:29:26.818Z,2.70
2022-09-30T15:33:30.754Z,2.53
2022-09-30T15:37:32.872Z,2.60
2022-09-30T15:41:40.710Z,3.03
2022-09-30T15:45:44.309Z,2.43
2022-09-30T15:49:49.117Z,2.83
2022-09-30T15:53:53.569Z,2.70
2022-09-30T15:57:54.771Z,2.73
2022-09-30T16:01:56.265Z,2.37
2022-09-30T16:06:10.320Z,2.90
2022-09-30T16:10:18.304Z,2.87
2022-09-30T16:14:26.728Z,2.43
2022-09-30T16:18:34.026Z,2.93
2022-09-30T16:22:42.906Z,2.30
2022-09-30T16:26:44.899Z,2.73
2022-09-30T16:30:51.356Z,2.60
2022-09-30T16:34:52.822Z,2.50
2022-09-30T16:38:53.992Z,3.00
2022-09-30T16:42:57.786Z,3.70
2022-09-30T16:46:59.768Z,3.93
2022-09-30T16:51:13.714Z,2.70
2022-09-30T16:59:17.397Z,3.10
2022-09-30T17:07:35.431Z,7.70
2022-09-30T17:11:37.311Z,2.90
2022-09-30T17:15:38.431Z,2.70
2022-09-30T17:19:39.595Z,2.80
2022-09-30T17:23:40.681Z,3.50
2022-09-30T17:27:41.997Z,2.97
2022-09-30T17:31:43.246Z,3.50
2022-09-30T17:35:44.489Z,5.40
2022-09-30T17:39:45.673Z,3.10
2022-09-30T17:43:46.864Z,3.87
2022-09-30T17:47:48.058Z,3.50
2022-09-30T17:51:49.242Z,3.53
2022-09-30T17:56:01.882Z,4.17
2022-09-30T18:00:03.367Z,3.50
2022-09-30T18:04:04.470Z,3.63
2022-09-30T18:08:05.691Z,3.77
2022-09-30T18:12:06.906Z,3.47
2022-09-30T18:16:08.095Z,3.70
2022-09-30T18:20:10.538Z,4.00
2022-09-30T18:24:11.949Z,4.53
2022-09-30T18:28:13.401Z,3.60
2022-09-30T18:32:16.511Z,2.60
2022-09-30T18:36:17.646Z,3.10
2022-09-30T18:40:21.650Z,3.80
2022-09-30T18:44:25.177Z,3.93
2022-09-30T18:48:26.619Z,3.57
2022-09-30T18:52:27.860Z,3.70
2022-09-30T18:56:31.233Z,3.53
2022-09-30T19:00:32.829Z,4.77
2022-09-30T19:04:34.619Z,5.60
2022-09-30T19:08:35.910Z,6.10
2022-09-30T19:12:38.083Z,7.20
2022-09-30T19:16:39.735Z,6.10
2022-09-30T19:20:41.177Z,5.63
2022-09-30T19:24:42.303Z,5.50
2022-09-30T19:28:43.377Z,4.77
2022-09-30T19:32:44.645Z,4.70
2022-09-30T19:36:51.560Z,4.73
2022-09-30T19:40:56.526Z,4.20
2022-09-30T19:44:57.889Z,3.60
2022-09-30T19:48:59.010Z,4.37
2022-09-30T19:53:00.155Z,5.00
2022-09-30T19:57:01.296Z,9.10
2022-09-30T20:01:05.013Z,9.83
2022-09-30T20:05:06.972Z,6.87
2022-09-30T20:09:08.147Z,5.20
2022-09-30T20:13:09.244Z,4.90
2022-09-30T20:17:11.530Z,4.57
2022-09-30T20:21:14.920Z,5.23
2022-09-30T20:25:16.098Z,4.97
2022-09-30T20:29:19.115Z,4.50
2022-09-30T20:33:22.970Z,3.93
2022-09-30T20:37:24.893Z,5.07
2022-09-30T20:41:27.269Z,5.03
2022-09-30T20:45:28.849Z,5.60
2022-09-30T20:49:29.991Z,5.63
2022-09-30T20:53:31.191Z,5.07
2022-09-30T20:57:32.460Z,4.90
2022-09-30T21:01:33.887Z,5.50
2022-09-30T21:05:35.233Z,5.10
2022-09-30T21:09:36.563Z,5.10
2022-09-30T21:13:43.854Z,5.90
2022-09-30T21:17:45.356Z,5.00
2022-09-30T21:21:46.533Z,5.17
2022-09-30T21:25:49.911Z,5.97
2022-09-30T21:29:51.400Z,5.63
2022-09-30T21:33:57.595Z,5.93
2022-09-30T21:37:58.698Z,5.23
2022-09-30T21:41:59.867Z,6.10
2022-09-30T21:46:03.232Z,6.13
2022-09-30T21:50:05.853Z,5.97
2022-09-30T21:54:09.048Z,6.20
2022-09-30T21:58:10.232Z,6.57
2022-09-30T22:02:11.546Z,6.10
2022-09-30T22:06:12.869Z,5.90
2022-09-30T22:10:14.255Z,6.17
2022-09-30T22:14:15.814Z,6.07
2022-09-30T22:18:18.841Z,5.67
2022-09-30T22:22:20.018Z,6.97
2022-09-30T22:26:22.796Z,5.60
2022-09-30T22:30:27.005Z,5.70
2022-09-30T22:34:46.499Z,5.77
2022-09-30T22:38:48.203Z,6.00
2022-09-30T22:42:49.707Z,5.70
2022-09-30T22:46:52.277Z,5.30
2022-09-30T22:50:53.364Z,5.53
2022-09-30T22:54:54.576Z,5.03
2022-09-30T22:58:55.755Z,5.40
2022-09-30T23:02:56.932Z,5.93
2022-09-30T23:06:58.424Z,5.97
2022-09-30T23:10:59.768Z,5.30
2022-09-30T23:15:01.323Z,7.37
2022-09-30T23:19:02.705Z,6.10
2022-09-30T23:23:04.017Z,4.93
2022-09-30T23:27:05.193Z,5.03
2022-09-30T23:31:10.117Z,5.40
2022-09-30T23:35:12.296Z,4.67
2022-09-30T23:39:20.024Z,4.67
2022-09-30T23:43:21.499Z,4.27
2022-09-30T23:47:22.724Z,4.37
2022-09-30T23:51:24.022Z,4.87
2022-09-30T23:55:27.131Z,4.50
2022-09-30T23:59:29.498Z,5.10
